.
WxDataArchive / Data Records for 2007-08-31
2007-08-30 August 2007 2007-09-01

Data Records for Friday, 31 August 2007

Time	Temp	Chill	HIndex	Humid	Dewpt	 Wind 	HiWind	WindDir	Rain 	Barom 
-----	----	-----	------	-----	-----	------	------	-------	-----	----- 
00:00	61.3	61.3	61.3	72	52.2	0	2	90	0.00	30.082 
00:05	61.3	61.3	61.3	72	52.2	0	2	90	0.00	30.080 
00:10	61.0	61.0	61.0	73	52.3	0	1	90	0.00	30.079 
00:15	60.9	60.9	60.9	73	52.2	0	1	90	0.00	30.080 
00:20	60.5	60.5	60.5	73	51.8	0	1	90	0.00	30.079 
00:25	60.4	60.4	60.4	73	51.7	0	1	90	0.00	30.081 
00:30	60.1	60.1	60.1	73	51.4	0	1	90	0.00	30.080 
00:35	59.9	59.9	59.9	74	51.6	0	0	---	0.00	30.079 
00:40	59.6	59.6	59.6	74	51.3	0	1	90	0.00	30.080 
00:45	59.3	59.3	59.3	75	51.4	0	0	---	0.00	30.079 
00:50	59.0	59.0	59.0	76	51.4	0	0	---	0.00	30.079 
00:55	58.7	58.7	58.7	77	51.5	0	0	---	0.00	30.078 
01:00	58.4	58.4	58.4	78	51.6	0	0	---	0.00	30.078 
01:05	58.1	58.1	58.1	78	51.3	0	0	---	0.00	30.077 
01:10	57.8	57.8	57.8	79	51.3	0	0	---	0.00	30.073 
01:15	57.5	57.5	57.5	80	51.4	0	0	---	0.00	30.073 
01:20	57.3	57.3	57.3	80	51.2	0	0	---	0.00	30.073 
01:25	57.0	57.0	57.0	81	51.2	0	0	---	0.00	30.074 
01:30	56.9	56.9	56.9	82	51.5	0	0	---	0.00	30.072 
01:35	56.6	56.6	56.6	82	51.2	0	0	---	0.00	30.072 
01:40	56.5	56.5	56.5	82	51.1	0	0	---	0.00	30.071 
01:45	56.2	56.2	56.2	83	51.1	0	0	---	0.00	30.072 
01:50	56.0	56.0	56.0	84	51.2	0	0	---	0.00	30.072 
01:55	55.9	55.9	55.9	84	51.1	0	0	---	0.00	30.069 
02:00	55.6	55.6	55.6	84	50.8	0	0	---	0.00	30.069 
02:05	55.4	55.4	55.4	84	50.6	0	0	---	0.00	30.068 
02:10	55.1	55.1	55.1	85	50.7	0	0	---	0.00	30.065 
02:15	54.8	54.8	54.8	85	50.4	0	0	---	0.00	30.065 
02:20	54.7	54.7	54.7	86	50.6	0	0	---	0.00	30.067 
02:25	54.4	54.4	54.4	87	50.6	0	0	---	0.00	30.068 
02:30	54.2	54.2	54.2	88	50.7	0	0	---	0.00	30.068 
02:35	54.1	54.1	54.1	88	50.6	0	0	---	0.00	30.068 
02:40	53.9	53.9	53.9	89	50.7	0	0	---	0.00	30.067 
02:45	53.8	53.8	53.8	89	50.6	0	0	---	0.00	30.065 
02:50	53.5	53.5	53.5	90	50.6	0	0	---	0.00	30.066 
02:55	53.3	53.3	53.3	90	50.4	0	0	---	0.00	30.066 
03:00	53.2	53.2	53.2	90	50.3	0	0	---	0.00	30.066 
03:05	53.1	53.1	53.1	91	50.5	0	0	---	0.00	30.069 
03:10	52.9	52.9	52.9	91	50.3	0	0	---	0.00	30.070 
03:15	52.9	52.9	52.9	92	50.6	0	0	---	0.00	30.070 
03:20	52.8	52.8	52.8	92	50.5	0	0	---	0.00	30.069 
03:25	52.6	52.6	52.6	92	50.3	0	0	---	0.00	30.071 
03:30	52.6	52.6	52.6	93	50.6	0	0	---	0.00	30.073 
03:35	52.5	52.5	52.5	93	50.5	0	0	---	0.00	30.074 
03:40	52.2	52.2	52.2	93	50.2	0	0	---	0.00	30.076 
03:45	52.2	52.2	52.2	93	50.2	0	0	---	0.00	30.077 
03:50	52.0	52.0	52.0	93	50.0	0	0	---	0.00	30.078 
03:55	51.9	51.9	51.9	93	49.9	0	0	---	0.00	30.078 
04:00	51.9	51.9	51.9	94	50.2	0	0	---	0.00	30.081 
04:05	51.7	51.7	51.7	94	50.0	0	0	---	0.00	30.084 
04:10	51.6	51.6	51.6	94	49.9	0	0	---	0.00	30.083 
04:15	51.6	51.6	51.6	94	49.9	0	0	---	0.00	30.083 
04:20	51.4	51.4	51.4	94	49.7	0	0	---	0.00	30.084 
04:25	51.3	51.3	51.3	94	49.6	0	0	---	0.00	30.084 
04:30	51.1	51.1	51.1	94	49.4	0	0	---	0.00	30.084 
04:35	51.1	51.1	51.1	94	49.4	0	0	---	0.00	30.084 
04:40	51.0	51.0	51.0	95	49.6	0	0	---	0.00	30.083 
04:45	51.0	51.0	51.0	95	49.6	0	0	---	0.00	30.084 
04:50	50.8	50.8	50.8	95	49.4	0	0	---	0.00	30.084 
04:55	50.7	50.7	50.7	95	49.3	0	0	---	0.00	30.082 
05:00	50.5	50.5	50.5	95	49.1	0	0	---	0.00	30.083 
05:05	50.4	50.4	50.4	95	49.0	0	0	---	0.00	30.085 
05:10	50.4	50.4	50.4	95	49.0	0	0	---	0.00	30.086 
05:15	50.4	50.4	50.4	95	49.0	0	0	---	0.00	30.087 
05:20	50.4	50.4	50.4	95	49.0	0	0	---	0.00	30.090 
05:25	50.4	50.4	50.4	95	49.0	0	0	---	0.00	30.088 
05:30	50.2	50.2	50.2	95	48.8	0	0	---	0.00	30.088 
05:35	50.1	50.1	50.1	95	48.7	0	0	---	0.00	30.090 
05:40	50.1	50.1	50.1	95	48.7	0	0	---	0.00	30.092 
05:45	50.1	50.1	50.1	96	49.0	0	0	---	0.00	30.095 
05:50	50.1	50.1	50.1	96	49.0	0	0	---	0.00	30.100 
05:55	50.1	50.1	50.1	96	49.0	0	0	---	0.00	30.101 
06:00	50.1	50.1	50.1	96	49.0	0	0	---	0.00	30.102 
06:05	50.1	50.1	50.1	96	49.0	0	0	---	0.00	30.105 
06:10	50.1	50.1	50.1	96	49.0	0	0	---	0.00	30.106 
06:15	50.1	50.1	50.1	95	48.7	0	0	---	0.00	30.107 
06:20	50.1	50.1	50.1	95	48.7	0	0	---	0.00	30.109 
06:25	50.2	50.2	50.2	96	49.1	0	0	---	0.00	30.108 
06:30	50.4	50.4	50.4	95	49.0	0	0	---	0.00	30.110 
06:35	50.4	50.4	50.4	95	49.0	0	0	---	0.00	30.112 
06:40	50.7	50.7	50.7	95	49.3	0	0	---	0.00	30.111 
06:45	51.0	51.0	51.0	95	49.6	0	0	---	0.00	30.111 
06:50	51.4	51.4	51.4	95	50.0	0	0	---	0.00	30.114 
06:55	51.9	51.9	51.9	95	50.5	0	0	---	0.00	30.116 
07:00	52.3	52.3	52.3	94	50.6	0	0	---	0.00	30.118 
07:05	53.1	53.1	53.1	93	51.1	0	1	90	0.00	30.118 
07:10	53.8	53.8	53.8	91	51.2	0	1	90	0.00	30.118 
07:15	54.8	54.8	54.8	87	51.0	0	1	90	0.00	30.116 
07:20	56.2	56.2	56.2	79	49.8	1	5	112	0.00	30.116 
07:25	57.8	57.8	57.8	76	50.3	1	3	45	0.00	30.115 
07:30	59.2	59.2	59.2	74	50.9	0	2	68	0.00	30.114 
07:35	59.9	59.9	59.9	71	50.5	1	3	112	0.00	30.114 
07:40	60.4	60.4	60.4	72	51.3	1	3	112	0.00	30.115 
07:45	60.7	60.7	60.7	70	50.9	1	4	90	0.00	30.113 
07:50	60.9	60.9	60.9	74	52.6	1	4	68	0.00	30.115 
07:55	60.9	60.9	60.9	72	51.8	0	3	68	0.00	30.114 
08:00	61.0	61.0	61.0	72	51.9	1	4	112	0.00	30.114 
08:05	61.2	61.2	61.2	73	52.5	0	3	112	0.00	30.116 
08:10	61.5	61.5	61.5	73	52.8	1	3	112	0.00	30.115 
08:15	61.6	61.6	61.6	74	53.2	0	1	112	0.00	30.115 
08:20	62.0	62.0	62.0	74	53.6	0	3	112	0.00	30.116 
08:25	62.4	62.4	62.4	72	53.2	0	2	112	0.00	30.116 
08:30	62.9	62.9	62.9	71	53.3	1	4	90	0.00	30.114 
08:35	63.2	63.2	63.2	70	53.2	1	4	90	0.00	30.113 
08:40	63.4	63.4	63.4	69	53.0	1	3	112	0.00	30.114 
08:45	64.0	64.0	64.0	69	53.6	1	6	90	0.00	30.114 
08:50	64.7	64.7	64.7	69	54.3	2	3	112	0.00	30.112 
08:55	65.3	65.3	65.3	65	53.2	2	7	112	0.00	30.113 
09:00	65.5	65.5	65.5	66	53.8	3	7	112	0.00	30.115 
09:05	66.3	66.3	66.3	69	55.8	2	5	112	0.00	30.117 
09:10	66.4	66.4	66.4	64	53.8	3	6	112	0.00	30.121 
09:15	67.1	67.1	67.1	63	54.1	1	4	112	0.00	30.122 
09:20	67.8	67.8	67.8	60	53.4	2	7	90	0.00	30.120 
09:25	68.1	68.1	68.1	60	53.7	2	4	90	0.00	30.121 
09:30	68.6	68.6	68.6	59	53.7	2	6	90	0.00	30.122 
09:35	68.6	68.6	68.6	58	53.2	3	6	90	0.00	30.124 
09:40	68.6	68.6	68.6	58	53.2	3	5	112	0.00	30.124 
09:45	68.9	68.9	68.9	59	54.0	2	5	112	0.00	30.124 
09:50	69.6	69.6	69.6	59	54.6	1	4	112	0.00	30.125 
09:55	70.1	70.1	70.1	57	54.1	1	4	338	0.00	30.124 
10:00	70.4	70.4	70.4	55	53.4	2	4	68	0.00	30.125 
10:05	70.8	70.8	70.8	57	54.8	1	5	135	0.00	30.125 
10:10	71.1	71.1	71.1	54	53.6	2	5	45	0.00	30.125 
10:15	71.3	71.3	71.3	58	55.7	2	5	90	0.00	30.125 
10:20	71.8	71.8	71.8	52	53.2	1	3	112	0.00	30.128 
10:25	72.1	72.1	72.1	54	54.5	1	4	112	0.00	30.129 
10:30	72.0	72.0	72.0	52	53.4	1	2	68	0.00	30.128 
10:35	71.8	71.8	71.8	50	52.1	3	6	112	0.00	30.128 
10:40	71.8	71.8	71.8	57	55.7	1	5	112	0.00	30.128 
10:45	72.3	72.3	72.3	51	53.1	2	7	112	0.00	30.131 
10:50	72.0	72.0	72.0	48	51.2	3	9	112	0.00	30.133 
10:55	72.1	72.1	72.1	51	53.0	2	7	90	0.00	30.130 
11:00	72.3	72.3	72.3	50	52.6	2	6	112	0.00	30.131 
11:05	72.7	72.7	72.7	51	53.5	2	7	90	0.00	30.131 
11:10	72.7	72.7	72.7	46	50.7	3	11	90	0.00	30.132 
11:15	72.5	72.5	72.5	51	53.3	2	7	90	0.00	30.130 
11:20	72.8	72.8	72.8	49	52.5	1	3	90	0.00	30.130 
11:25	73.0	73.0	73.0	47	51.6	2	6	90	0.00	30.130 
11:30	73.0	73.0	73.0	48	52.1	3	10	112	0.00	30.131 
11:35	72.8	72.8	72.8	47	51.4	2	8	112	0.00	30.134 
11:40	73.2	73.2	73.2	51	54.0	1	4	90	0.00	30.131 
11:45	73.7	73.7	73.7	48	52.8	3	7	112	0.00	30.129 
11:50	73.7	73.7	73.7	47	52.2	2	7	112	0.00	30.134 
11:55	73.5	73.5	73.5	50	53.7	2	6	90	0.00	30.127 
12:00	73.7	73.7	73.7	52	55.0	1	6	112	0.00	30.125 
12:05	74.0	74.0	74.0	47	52.5	2	6	90	0.00	30.125 
12:10	74.2	74.2	74.2	47	52.7	2	6	112	0.00	30.125 
12:15	74.2	74.2	74.2	47	52.7	2	6	112	0.00	30.125 
12:20	74.2	74.2	74.2	50	54.3	2	5	90	0.00	30.125 
12:25	74.9	74.9	74.9	50	55.0	1	5	90	0.00	30.124 
12:30	74.6	74.6	74.6	44	51.2	4	12	112	0.00	30.125 
12:35	74.6	74.6	74.6	47	53.0	3	7	112	0.00	30.121 
12:40	74.6	74.6	74.6	47	53.0	3	7	90	0.00	30.120 
12:45	74.4	74.4	74.4	45	51.7	3	10	90	0.00	30.121 
12:50	75.1	75.1	77.7	50	55.2	1	5	158	0.00	30.117 
12:55	75.3	75.3	77.7	46	53.1	3	8	90	0.00	30.119 
13:00	75.3	75.3	77.7	44	51.9	3	6	112	0.00	30.118 
13:05	75.4	75.4	77.8	47	53.7	1	5	158	0.00	30.117 
13:10	75.4	75.4	77.7	43	51.3	3	7	112	0.00	30.116 
13:15	75.4	75.4	77.7	44	52.0	3	8	112	0.00	30.114 
13:20	75.3	75.3	77.7	45	52.5	4	7	112	0.00	30.114 
13:25	75.4	75.4	77.8	46	53.2	1	7	135	0.00	30.113 
13:30	76.0	76.0	78.1	49	55.4	2	6	135	0.00	30.113 
13:35	76.3	76.3	78.2	52	57.4	1	3	112	0.00	30.112 
13:40	76.3	76.3	78.1	45	53.4	2	5	112	0.00	30.111 
13:45	76.7	76.7	78.3	45	53.7	1	3	112	0.00	30.111 
13:50	76.7	76.7	78.3	44	53.1	3	7	90	0.00	30.111 
13:55	76.3	76.3	78.1	46	54.0	2	6	90	0.00	30.111 
14:00	76.0	76.0	78.0	44	52.5	3	5	112	0.00	30.111 
14:05	75.8	75.8	77.9	45	52.9	2	6	112	0.00	30.114 
14:10	76.0	76.0	78.0	46	53.7	1	4	68	0.00	30.113 
14:15	76.3	76.3	78.0	42	51.5	2	10	112	0.00	30.113 
14:20	76.1	76.1	78.0	44	52.6	2	7	112	0.00	30.110 
14:25	76.3	76.3	78.0	42	51.5	3	10	135	0.00	30.111 
14:30	76.3	76.3	78.1	46	54.0	2	6	112	0.00	30.110 
14:35	76.3	76.3	78.0	43	52.1	3	7	112	0.00	30.109 
14:40	76.1	76.1	78.0	44	52.6	2	7	90	0.00	30.110 
14:45	76.5	76.5	78.1	43	52.3	1	4	112	0.00	30.107 
14:50	76.8	76.8	78.4	46	54.4	2	5	90	0.00	30.105 
14:55	76.5	76.5	78.2	45	53.6	4	6	112	0.00	30.108 
15:00	76.3	76.3	78.1	46	54.0	1	5	112	0.00	30.103 
15:05	76.3	76.3	78.1	44	52.8	2	6	112	0.00	30.104 
15:10	76.1	76.1	78.0	44	52.6	3	9	90	0.00	30.106 
15:15	75.6	75.6	77.8	43	51.5	3	14	90	0.00	30.108 
15:20	75.6	75.6	77.8	44	52.1	2	6	90	0.00	30.109 
15:25	75.8	75.8	77.9	46	53.5	2	5	90	0.00	30.109 
15:30	76.0	76.0	78.0	44	52.5	2	5	90	0.00	30.109 
15:35	76.0	76.0	78.1	49	55.4	2	6	112	0.00	30.109 
15:40	75.8	75.8	78.0	48	54.7	2	5	90	0.00	30.109 
15:45	75.6	75.6	77.9	50	55.6	1	4	68	0.00	30.108 
15:50	75.6	75.6	77.9	47	53.9	2	5	112	0.00	30.106 
15:55	75.4	75.4	77.8	46	53.2	3	7	90	0.00	30.107 
16:00	75.4	75.4	77.8	46	53.2	3	8	112	0.00	30.103 
16:05	75.6	75.6	77.9	48	54.5	2	5	90	0.00	30.101 
16:10	75.8	75.8	77.9	46	53.5	2	5	112	0.00	30.101 
16:15	75.6	75.6	77.8	44	52.1	3	5	112	0.00	30.101 
16:20	75.6	75.6	77.8	46	53.3	2	5	112	0.00	30.100 
16:25	75.4	75.4	77.8	47	53.7	3	6	90	0.00	30.099 
16:30	75.3	75.3	77.7	45	52.5	3	6	112	0.00	30.099 
16:35	75.1	75.1	77.6	45	52.3	2	5	112	0.00	30.099 
16:40	74.9	74.9	74.9	46	52.7	3	9	90	0.00	30.098 
16:45	75.1	75.1	77.7	48	54.1	2	5	112	0.00	30.098 
16:50	75.1	75.1	77.7	47	53.5	2	6	90	0.00	30.097 
16:55	74.9	74.9	74.9	46	52.7	3	5	90	0.00	30.096 
17:00	74.7	74.7	74.7	46	52.5	2	5	112	0.00	30.096 
17:05	74.6	74.6	74.6	46	52.4	2	6	68	0.00	30.098 
17:10	74.4	74.4	74.4	47	52.8	2	4	112	0.00	30.100 
17:15	74.4	74.4	74.4	49	54.0	1	4	112	0.00	30.099 
17:20	74.2	74.2	74.2	47	52.7	2	6	90	0.00	30.099 
17:25	74.0	74.0	74.0	48	53.0	2	7	90	0.00	30.100 
17:30	73.9	73.9	73.9	48	53.0	1	5	112	0.00	30.099 
17:35	73.7	73.7	73.7	48	52.8	2	6	112	0.00	30.097 
17:40	73.7	73.7	73.7	48	52.8	3	7	90	0.00	30.098 
17:45	73.5	73.5	73.5	49	53.2	1	4	90	0.00	30.099 
17:50	73.3	73.3	73.3	50	53.5	1	3	90	0.00	30.098 
17:55	73.3	73.3	73.3	49	53.0	2	4	112	0.00	30.100 
18:00	73.2	73.2	73.2	49	52.9	2	6	112	0.00	30.101 
18:05	73.2	73.2	73.2	49	52.9	2	5	112	0.00	30.100 
18:10	73.0	73.0	73.0	52	54.3	1	3	112	0.00	30.100 
18:15	72.7	72.7	72.7	51	53.5	1	2	90	0.00	30.100 
18:20	72.7	72.7	72.7	50	53.0	1	4	90	0.00	30.099 
18:25	72.5	72.5	72.5	51	53.3	1	4	90	0.00	30.100 
18:30	72.3	72.3	72.3	52	53.7	1	3	90	0.00	30.100 
18:35	72.0	72.0	72.0	54	54.4	0	2	112	0.00	30.100 
18:40	71.8	71.8	71.8	54	54.2	0	1	112	0.00	30.101 
18:45	71.5	71.5	71.5	56	55.0	0	0	---	0.00	30.100 
18:50	71.1	71.1	71.1	56	54.6	0	1	112	0.00	30.101 
18:55	70.8	70.8	70.8	57	54.8	0	1	112	0.00	30.101 
19:00	70.3	70.3	70.3	59	55.3	0	0	---	0.00	30.100 
19:05	69.9	69.9	69.9	59	54.9	0	0	---	0.00	30.092 
19:10	69.4	69.4	69.4	60	54.9	0	1	112	0.00	30.092 
19:15	69.1	69.1	69.1	61	55.1	0	0	---	0.00	30.093 
19:20	68.6	68.6	68.6	61	54.6	0	0	---	0.00	30.094 
19:25	68.4	68.4	68.4	62	54.9	0	1	112	0.00	30.096 
19:30	68.1	68.1	68.1	63	55.0	0	0	---	0.00	30.097 
19:35	67.6	67.6	67.6	63	54.5	0	0	---	0.00	30.098 
19:40	67.1	67.1	67.1	63	54.1	0	0	---	0.00	30.099 
19:45	66.6	66.6	66.6	64	54.0	0	0	---	0.00	30.100 
19:50	66.3	66.3	66.3	66	54.6	0	0	---	0.00	30.106 
19:55	65.8	65.8	65.8	66	54.1	0	0	---	0.00	30.108 
20:00	65.5	65.5	65.5	68	54.7	0	0	---	0.00	30.111 
20:05	65.2	65.2	65.2	69	54.8	0	0	---	0.00	30.110 
20:10	64.8	64.8	64.8	69	54.4	0	0	---	0.00	30.111 
20:15	64.5	64.5	64.5	71	54.9	0	0	---	0.00	30.112 
20:20	64.2	64.2	64.2	72	55.0	0	0	---	0.00	30.114 
20:25	64.0	64.0	64.0	73	55.2	0	1	112	0.00	30.117 
20:30	63.7	63.7	63.7	73	54.9	0	0	---	0.00	30.118 
20:35	63.5	63.5	63.5	73	54.7	0	0	---	0.00	30.118 
20:40	63.2	63.2	63.2	74	54.8	0	0	---	0.00	30.120 
20:45	62.9	62.9	62.9	75	54.8	0	0	---	0.00	30.121 
20:50	62.6	62.6	62.6	76	54.9	0	0	---	0.00	30.121 
20:55	62.4	62.4	62.4	77	55.1	0	0	---	0.00	30.123 
21:00	62.1	62.1	62.1	78	55.2	0	0	---	0.00	30.126 
21:05	62.0	62.0	62.0	78	55.1	0	0	---	0.00	30.123 
21:10	61.8	61.8	61.8	79	55.2	0	0	---	0.00	30.124 
21:15	61.5	61.5	61.5	80	55.3	0	0	---	0.00	30.124 
21:20	61.3	61.3	61.3	81	55.4	0	0	---	0.00	30.126 
21:25	61.0	61.0	61.0	82	55.5	0	0	---	0.00	30.127 
21:30	60.9	60.9	60.9	82	55.4	0	0	---	0.00	30.127 
21:35	60.7	60.7	60.7	83	55.5	0	0	---	0.00	30.127 
21:40	60.5	60.5	60.5	83	55.3	0	0	---	0.00	30.127 
21:45	60.2	60.2	60.2	84	55.3	0	0	---	0.00	30.127 
21:50	60.1	60.1	60.1	84	55.2	0	0	---	0.00	30.127 
21:55	59.9	59.9	59.9	85	55.4	0	0	---	0.00	30.127 
22:00	59.6	59.6	59.6	86	55.4	0	0	---	0.00	30.127 
22:05	59.5	59.5	59.5	87	55.6	0	0	---	0.00	30.126 
22:10	59.3	59.3	59.3	87	55.4	0	0	---	0.00	30.127 
22:15	59.3	59.3	59.3	88	55.7	0	0	---	0.00	30.132 
22:20	59.2	59.2	59.2	88	55.6	0	0	---	0.00	30.132 
22:25	59.0	59.0	59.0	88	55.4	0	0	---	0.00	30.131 
22:30	58.9	58.9	58.9	89	55.7	0	0	---	0.00	30.133 
22:35	58.7	58.7	58.7	89	55.5	0	0	---	0.00	30.135 
22:40	58.6	58.6	58.6	90	55.7	0	0	---	0.00	30.138 
22:45	58.4	58.4	58.4	90	55.5	0	0	---	0.00	30.139 
22:50	58.4	58.4	58.4	90	55.5	0	0	---	0.00	30.141 
22:55	58.3	58.3	58.3	91	55.7	0	0	---	0.00	30.142 
23:00	58.1	58.1	58.1	91	55.5	0	0	---	0.00	30.143 
23:05	58.1	58.1	58.1	92	55.8	0	0	---	0.00	30.141 
23:10	58.0	58.0	58.0	92	55.7	0	0	---	0.00	30.143 
23:15	58.0	58.0	58.0	92	55.7	0	0	---	0.00	30.144 
23:20	57.8	57.8	57.8	92	55.5	0	0	---	0.00	30.144 
23:25	57.8	57.8	57.8	93	55.8	0	0	---	0.00	30.144 
23:30	57.6	57.6	57.6	93	55.6	0	0	---	0.00	30.146 
23:35	57.6	57.6	57.6	93	55.6	0	0	---	0.00	30.147 
23:40	57.6	57.6	57.6	94	55.9	0	0	---	0.00	30.147 
23:45	57.5	57.5	57.5	94	55.8	0	0	---	0.00	30.146 
23:50	57.3	57.3	57.3	94	55.6	0	0	---	0.00	30.146 
23:55	57.2	57.2	57.2	94	55.5	0	0	---	0.00	30.146 

CoCoRaHS
IN-AL-39
A2 Web Hosting
Creative Commons License
GoDaddy
Look for:

loaded 2017-12-13 15:58:48 • last modified 2010-11-18 10:43:29
Privacy PolicyDisclaimer
• wx.awcolley.com is powered by PmWiki v.2002016 •
• all content (unless otherwise noted) © 2017 A W Colley